KMLTKBGR

Guest
Details From KMLT - Millinocket Muni
To KBGR - Bangor Intl
Flight Number -
Tags Generated
Created
Modified
Stats Distance 50 nm / 93 km
Max Altitude 0 ft / 0 m
Waypoints 2
Social Downloads 1
Likes 0
Share VATSIM

Download

Looking for another format? Having issues loading an existing format? Contact us
Advertisement - Login to hide

Notes

Generated

Route

KMLT KBGR

ID Type Via Altitude Latitude Longitude Leg Dist Tot Dist Heading (true) Name
O KMLT APT - 0 ft / 0 m 45.65021˚ -68.69303˚ - 0 nm - MILLINOCKET MUNI
O KBGR APT - 0 ft / 0 m 44.81837˚ -68.84393˚ 50 nm 50 nm 187° / 187° -

Altitude Profile

Advertisement - Login to hide

KMLT

Details ICAO KMLT (MLT)
Name MILLINOCKET MUNI
Region United States
Timezone America/New_York (UTC-5.0)
Stats Elevation 408 ft / 124 m (AMSL)
Location 45.647703° -68.685736°
Runways 2
Magnetic Variation 16.458° W

METAR

KMLT 151953Z AUTO 00000KT 10SM CLR M07/M16 A2992 RMK AO2 SLP144 T10721156 TSNO

Decode

TAF

Not found

Departure Runways

ID Width Length Bearing (true) Bearing (mag) Surface Threshold Offset Overrun Length
11 100 ft / 30 m 4,702 ft / 1,433 m 90.35° 106.81° Asphalt 0 ft / 0 m 0 ft / 0 m
16 150 ft / 46 m 4,003 ft / 1,220 m 139.01° 155.47° Asphalt 0 ft / 0 m 0 ft / 0 m
29 100 ft / 30 m 4,702 ft / 1,433 m 270.36° 286.82° Asphalt 0 ft / 0 m 0 ft / 0 m
34 150 ft / 46 m 4,003 ft / 1,220 m 319.02° 335.48° Asphalt 0 ft / 0 m 0 ft / 0 m

KBGR

Details ICAO KBGR (BGR)
Name BANGOR INTL
Region United States
Timezone America/New_York (UTC-5.0)
Stats Elevation 192 ft / 59 m (AMSL)
Location 44.807437° -68.828126°
Runways 1
Magnetic Variation 16.153° W

METAR

KBGR 151953Z 00000KT 10SM FEW100 SCT200 M07/M13 A2997 RMK AO2 SLP153 T10671133

Decode

TAF

TAF KBGR 151720Z 1518/1618 27007KT P6SM FEW250 FM152100 00000KT P6SM SCT250 FM152300 00000KT P6SM BKN090 FM161700 31004KT P6SM BKN045

Decode

Destination Runways

ID Width Length Bearing (true) Bearing (mag) Surface Threshold Offset Overrun Length
15 200 ft / 61 m 11,430 ft / 3,484 m 134.27° 150.42° Asphalt 0 ft / 0 m 1,000 ft / 305 m
33 200 ft / 61 m 11,430 ft / 3,484 m 314.29° 330.44° Asphalt 0 ft / 0 m 1,000 ft / 305 m

Approach Navaids

Runway Type Ident Frequency Range Bearing (true) Bearing (mag) Slope Elevation
15 Localiser IJVH 109.50 MHz 18 nm / 33 km 134.29° 150.45° - 166 ft / 51 m (AMSL)
15 Glidescope IJVH 109.50 MHz 10 nm / 19 km 134.28° 150.43° 3.00° 190 ft / 58 m (AMSL)
15 DME IJVH 109.50 MHz 18 nm / 33 km - - - 166 ft / 51 m (AMSL)
33 Localiser IBGR 109.50 MHz 18 nm / 33 km 314.26° 330.42° - 182 ft / 55 m (AMSL)
33 Glidescope IBGR 109.50 MHz 10 nm / 19 km 314.28° 330.43° 3.00° 149 ft / 45 m (AMSL)
33 DME IBGR 109.50 MHz 18 nm / 33 km - - - 166 ft / 51 m (AMSL)